Terminal Aerodrome Forecast
Issued by NWS

Home | Current Version | Previous Version | Text Only | Print | Product List | Glossary On
Versions: 1 2 3 4 5 6 7 8 9 10 11 12 13 14 15 16 17
000
FTUS42 KTAE 300500
TAFDHN
TAF
KDHN 300526Z 3006/0106 04005KT P6SM BKN014
     FM300900 04003KT P6SM OVC008
     FM301500 04006KT P6SM BKN025
     FM301800 05005KT P6SM SCT030
     FM010200 VRB02KT P6SM SKC=

USA.gov is the U.S. government's official web portal to all federal, state and local government web resources and services.